sensor_id;sensor_type;location;lat;lon;timestamp;P1;durP1;ratioP1;P2;durP2;ratioP2
10132;SDS011;5106;50.926;7.080;2024-02-26T00:00:29;1.07;;;0.90;;
10132;SDS011;5106;50.926;7.080;2024-02-26T00:02:55;1.47;;;0.97;;
10132;SDS011;5106;50.926;7.080;2024-02-26T00:05:21;1.10;;;0.90;;
10132;SDS011;5106;50.926;7.080;2024-02-26T00:07:46;1.60;;;1.00;;
10132;SDS011;5106;50.926;7.080;2024-02-26T00:10:15;0.80;;;0.67;;
10132;SDS011;5106;50.926;7.080;2024-02-26T00:12:40;0.80;;;0.70;;
10132;SDS011;5106;50.926;7.080;2024-02-26T00:15:06;1.17;;;0.80;;
10132;SDS011;5106;50.926;7.080;2024-02-26T00:17:33;1.30;;;0.90;;
10132;SDS011;5106;50.926;7.080;2024-02-26T00:19:59;1.10;;;0.70;;
10132;SDS011;5106;50.926;7.080;2024-02-26T00:22:25;1.77;;;0.97;;
10132;SDS011;5106;50.926;7.080;2024-02-26T00:24:51;1.03;;;0.90;;
10132;SDS011;5106;50.926;7.080;2024-02-26T00:27:17;1.20;;;0.80;;
10132;SDS011;5106;50.926;7.080;2024-02-26T00:29:42;1.27;;;0.80;;
10132;SDS011;5106;50.926;7.080;2024-02-26T00:32:08;1.40;;;0.80;;
10132;SDS011;5106;50.926;7.080;2024-02-26T00:34:33;1.00;;;0.73;;
10132;SDS011;5106;50.926;7.080;2024-02-26T00:36:59;0.63;;;0.63;;
10132;SDS011;5106;50.926;7.080;2024-02-26T00:39:25;1.20;;;0.80;;
10132;SDS011;5106;50.926;7.080;2024-02-26T00:41:50;0.90;;;0.77;;
10132;SDS011;5106;50.926;7.080;2024-02-26T00:44:16;1.33;;;0.80;;
10132;SDS011;5106;50.926;7.080;2024-02-26T00:46:42;1.90;;;0.90;;
10132;SDS011;5106;50.926;7.080;2024-02-26T00:49:08;0.97;;;0.77;;
10132;SDS011;5106;50.926;7.080;2024-02-26T00:51:33;1.33;;;0.93;;
10132;SDS011;5106;50.926;7.080;2024-02-26T00:53:59;0.70;;;0.63;;
10132;SDS011;5106;50.926;7.080;2024-02-26T00:56:25;1.43;;;0.90;;
10132;SDS011;5106;50.926;7.080;2024-02-26T00:58:50;0.97;;;0.80;;
10132;SDS011;5106;50.926;7.080;2024-02-26T01:01:16;0.97;;;0.70;;
10132;SDS011;5106;50.926;7.080;2024-02-26T01:03:42;1.10;;;0.73;;
10132;SDS011;5106;50.926;7.080;2024-02-26T01:06:07;1.10;;;0.80;;
10132;SDS011;5106;50.926;7.080;2024-02-26T01:08:33;0.77;;;0.70;;
10132;SDS011;5106;50.926;7.080;2024-02-26T01:11:00;1.33;;;0.90;;
10132;SDS011;5106;50.926;7.080;2024-02-26T01:13:26;0.90;;;0.67;;
10132;SDS011;5106;50.926;7.080;2024-02-26T01:15:51;0.80;;;0.73;;
10132;SDS011;5106;50.926;7.080;2024-02-26T01:18:17;1.33;;;0.70;;
10132;SDS011;5106;50.926;7.080;2024-02-26T01:20:43;2.00;;;0.73;;
10132;SDS011;5106;50.926;7.080;2024-02-26T01:23:08;1.80;;;0.60;;
10132;SDS011;5106;50.926;7.080;2024-02-26T01:25:34;1.43;;;1.13;;
10132;SDS011;5106;50.926;7.080;2024-02-26T01:27:59;1.13;;;0.80;;
10132;SDS011;5106;50.926;7.080;2024-02-26T01:30:25;0.70;;;0.60;;
10132;SDS011;5106;50.926;7.080;2024-02-26T01:32:50;1.27;;;0.60;;
10132;SDS011;5106;50.926;7.080;2024-02-26T01:35:16;1.53;;;0.80;;
10132;SDS011;5106;50.926;7.080;2024-02-26T01:37:45;1.47;;;0.87;;
10132;SDS011;5106;50.926;7.080;2024-02-26T01:40:10;0.90;;;0.70;;
10132;SDS011;5106;50.926;7.080;2024-02-26T01:42:40;1.00;;;0.70;;
10132;SDS011;5106;50.926;7.080;2024-02-26T01:45:06;0.97;;;0.80;;
10132;SDS011;5106;50.926;7.080;2024-02-26T01:47:45;0.93;;;0.60;;
10132;SDS011;5106;50.926;7.080;2024-02-26T01:50:11;0.70;;;0.70;;
10132;SDS011;5106;50.926;7.080;2024-02-26T01:52:37;1.10;;;0.77;;
10132;SDS011;5106;50.926;7.080;2024-02-26T01:55:03;1.90;;;0.90;;
10132;SDS011;5106;50.926;7.080;2024-02-26T01:57:28;0.53;;;0.50;;
10132;SDS011;5106;50.926;7.080;2024-02-26T01:59:54;0.63;;;0.63;;
10132;SDS011;5106;50.926;7.080;2024-02-26T02:02:20;1.47;;;0.80;;
10132;SDS011;5106;50.926;7.080;2024-02-26T02:04:46;1.20;;;0.70;;
10132;SDS011;5106;50.926;7.080;2024-02-26T02:07:12;1.40;;;0.83;;
10132;SDS011;5106;50.926;7.080;2024-02-26T02:09:38;0.73;;;0.73;;
10132;SDS011;5106;50.926;7.080;2024-02-26T02:12:03;0.80;;;0.70;;
10132;SDS011;5106;50.926;7.080;2024-02-26T02:14:30;0.63;;;0.57;;
10132;SDS011;5106;50.926;7.080;2024-02-26T02:16:56;0.97;;;0.70;;
10132;SDS011;5106;50.926;7.080;2024-02-26T02:19:21;0.73;;;0.70;;
10132;SDS011;5106;50.926;7.080;2024-02-26T02:21:47;1.60;;;0.77;;
10132;SDS011;5106;50.926;7.080;2024-02-26T02:24:12;1.23;;;0.90;;
10132;SDS011;5106;50.926;7.080;2024-02-26T02:26:38;1.17;;;0.73;;
10132;SDS011;5106;50.926;7.080;2024-02-26T02:29:04;1.30;;;0.70;;
10132;SDS011;5106;50.926;7.080;2024-02-26T02:31:31;0.93;;;0.73;;
10132;SDS011;5106;50.926;7.080;2024-02-26T02:33:57;0.60;;;0.60;;
10132;SDS011;5106;50.926;7.080;2024-02-26T02:36:23;0.70;;;0.60;;
10132;SDS011;5106;50.926;7.080;2024-02-26T02:38:49;0.90;;;0.80;;
10132;SDS011;5106;50.926;7.080;2024-02-26T02:41:15;0.90;;;0.80;;
10132;SDS011;5106;50.926;7.080;2024-02-26T02:43:44;1.30;;;1.00;;
10132;SDS011;5106;50.926;7.080;2024-02-26T02:46:09;2.03;;;0.80;;
10132;SDS011;5106;50.926;7.080;2024-02-26T02:48:37;0.80;;;0.70;;
10132;SDS011;5106;50.926;7.080;2024-02-26T02:51:03;1.57;;;0.90;;
10132;SDS011;5106;50.926;7.080;2024-02-26T02:53:29;2.73;;;1.00;;
10132;SDS011;5106;50.926;7.080;2024-02-26T02:55:54;1.27;;;0.80;;
10132;SDS011;5106;50.926;7.080;2024-02-26T02:58:20;1.53;;;0.80;;
10132;SDS011;5106;50.926;7.080;2024-02-26T03:00:46;0.70;;;0.70;;
10132;SDS011;5106;50.926;7.080;2024-02-26T03:03:11;1.37;;;0.80;;
10132;SDS011;5106;50.926;7.080;2024-02-26T03:05:37;0.87;;;0.63;;
10132;SDS011;5106;50.926;7.080;2024-02-26T03:08:02;0.77;;;0.60;;
10132;SDS011;5106;50.926;7.080;2024-02-26T03:10:28;1.37;;;0.80;;
10132;SDS011;5106;50.926;7.080;2024-02-26T03:12:54;1.17;;;0.83;;
10132;SDS011;5106;50.926;7.080;2024-02-26T03:15:21;1.27;;;0.80;;
10132;SDS011;5106;50.926;7.080;2024-02-26T03:17:46;1.00;;;0.77;;
10132;SDS011;5106;50.926;7.080;2024-02-26T03:20:12;1.20;;;0.80;;
10132;SDS011;5106;50.926;7.080;2024-02-26T03:22:41;1.33;;;0.80;;
10132;SDS011;5106;50.926;7.080;2024-02-26T03:25:06;0.70;;;0.67;;
10132;SDS011;5106;50.926;7.080;2024-02-26T03:27:32;1.00;;;0.73;;
10132;SDS011;5106;50.926;7.080;2024-02-26T03:29:58;1.10;;;0.70;;
10132;SDS011;5106;50.926;7.080;2024-02-26T03:32:23;1.50;;;0.70;;
10132;SDS011;5106;50.926;7.080;2024-02-26T03:34:49;0.73;;;0.70;;
10132;SDS011;5106;50.926;7.080;2024-02-26T03:37:19;1.30;;;0.77;;
10132;SDS011;5106;50.926;7.080;2024-02-26T03:39:44;0.93;;;0.73;;
10132;SDS011;5106;50.926;7.080;2024-02-26T03:42:10;1.00;;;0.70;;
10132;SDS011;5106;50.926;7.080;2024-02-26T03:44:36;1.20;;;0.80;;
10132;SDS011;5106;50.926;7.080;2024-02-26T03:47:01;0.63;;;0.60;;
10132;SDS011;5106;50.926;7.080;2024-02-26T03:49:27;0.90;;;0.60;;
10132;SDS011;5106;50.926;7.080;2024-02-26T03:51:53;1.47;;;0.80;;
10132;SDS011;5106;50.926;7.080;2024-02-26T03:54:18;1.50;;;0.80;;
10132;SDS011;5106;50.926;7.080;2024-02-26T03:56:44;1.10;;;0.90;;
10132;SDS011;5106;50.926;7.080;2024-02-26T03:59:09;2.43;;;0.87;;
10132;SDS011;5106;50.926;7.080;2024-02-26T04:01:35;0.77;;;0.70;;
10132;SDS011;5106;50.926;7.080;2024-02-26T04:04:00;1.13;;;0.80;;
10132;SDS011;5106;50.926;7.080;2024-02-26T04:06:26;0.87;;;0.80;;
10132;SDS011;5106;50.926;7.080;2024-02-26T04:08:52;1.50;;;0.70;;
10132;SDS011;5106;50.926;7.080;2024-02-26T04:11:17;2.50;;;0.97;;
10132;SDS011;5106;50.926;7.080;2024-02-26T04:13:44;1.03;;;0.80;;
10132;SDS011;5106;50.926;7.080;2024-02-26T04:16:14;1.73;;;0.77;;
10132;SDS011;5106;50.926;7.080;2024-02-26T04:18:41;1.47;;;0.70;;
10132;SDS011;5106;50.926;7.080;2024-02-26T04:21:07;1.43;;;0.70;;
10132;SDS011;5106;50.926;7.080;2024-02-26T04:23:32;1.53;;;0.87;;
10132;SDS011;5106;50.926;7.080;2024-02-26T04:25:58;1.17;;;0.70;;
10132;SDS011;5106;50.926;7.080;2024-02-26T04:28:23;0.90;;;0.80;;
10132;SDS011;5106;50.926;7.080;2024-02-26T04:30:54;1.47;;;0.90;;
10132;SDS011;5106;50.926;7.080;2024-02-26T04:33:20;0.93;;;0.77;;
10132;SDS011;5106;50.926;7.080;2024-02-26T04:35:45;2.40;;;1.00;;
10132;SDS011;5106;50.926;7.080;2024-02-26T04:38:11;1.30;;;1.00;;
10132;SDS011;5106;50.926;7.080;2024-02-26T04:40:36;1.17;;;0.90;;
10132;SDS011;5106;50.926;7.080;2024-02-26T04:43:02;1.83;;;1.03;;
10132;SDS011;5106;50.926;7.080;2024-02-26T04:45:27;1.33;;;1.00;;
10132;SDS011;5106;50.926;7.080;2024-02-26T04:47:53;1.10;;;0.90;;
10132;SDS011;5106;50.926;7.080;2024-02-26T04:50:19;1.47;;;1.07;;
10132;SDS011;5106;50.926;7.080;2024-02-26T04:52:44;1.70;;;0.90;;
10132;SDS011;5106;50.926;7.080;2024-02-26T04:55:10;1.57;;;0.87;;
10132;SDS011;5106;50.926;7.080;2024-02-26T04:57:36;0.80;;;0.70;;
10132;SDS011;5106;50.926;7.080;2024-02-26T05:00:01;4.10;;;0.90;;
10132;SDS011;5106;50.926;7.080;2024-02-26T05:02:29;2.77;;;0.80;;
10132;SDS011;5106;50.926;7.080;2024-02-26T05:04:57;1.57;;;1.10;;
10132;SDS011;5106;50.926;7.080;2024-02-26T05:07:22;1.00;;;0.80;;
10132;SDS011;5106;50.926;7.080;2024-02-26T05:09:48;1.30;;;0.90;;
10132;SDS011;5106;50.926;7.080;2024-02-26T05:12:14;1.40;;;0.90;;
10132;SDS011;5106;50.926;7.080;2024-02-26T05:14:40;1.40;;;1.10;;
10132;SDS011;5106;50.926;7.080;2024-02-26T05:17:06;1.47;;;0.87;;
10132;SDS011;5106;50.926;7.080;2024-02-26T05:19:31;1.30;;;1.00;;
10132;SDS011;5106;50.926;7.080;2024-02-26T05:21:57;1.87;;;1.10;;
10132;SDS011;5106;50.926;7.080;2024-02-26T05:24:22;1.80;;;1.00;;
10132;SDS011;5106;50.926;7.080;2024-02-26T05:26:48;1.57;;;0.93;;
10132;SDS011;5106;50.926;7.080;2024-02-26T05:29:14;1.73;;;1.20;;
10132;SDS011;5106;50.926;7.080;2024-02-26T05:31:41;1.80;;;1.00;;
10132;SDS011;5106;50.926;7.080;2024-02-26T05:34:07;1.67;;;1.17;;
10132;SDS011;5106;50.926;7.080;2024-02-26T05:36:33;2.07;;;1.20;;
10132;SDS011;5106;50.926;7.080;2024-02-26T05:38:59;1.87;;;1.00;;
10132;SDS011;5106;50.926;7.080;2024-02-26T05:41:25;1.57;;;1.17;;
10132;SDS011;5106;50.926;7.080;2024-02-26T05:43:52;2.70;;;1.33;;
10132;SDS011;5106;50.926;7.080;2024-02-26T05:46:18;1.37;;;1.20;;
10132;SDS011;5106;50.926;7.080;2024-02-26T05:48:45;1.50;;;1.00;;
10132;SDS011;5106;50.926;7.080;2024-02-26T05:51:15;2.60;;;1.10;;
10132;SDS011;5106;50.926;7.080;2024-02-26T05:53:41;1.07;;;0.90;;
10132;SDS011;5106;50.926;7.080;2024-02-26T05:56:06;4.60;;;1.10;;
10132;SDS011;5106;50.926;7.080;2024-02-26T05:58:32;1.73;;;1.03;;
10132;SDS011;5106;50.926;7.080;2024-02-26T06:00:58;2.07;;;1.10;;
10132;SDS011;5106;50.926;7.080;2024-02-26T06:03:25;1.93;;;1.10;;
10132;SDS011;5106;50.926;7.080;2024-02-26T06:05:50;1.60;;;1.00;;
10132;SDS011;5106;50.926;7.080;2024-02-26T06:08:16;1.00;;;0.90;;
10132;SDS011;5106;50.926;7.080;2024-02-26T06:10:42;3.43;;;1.20;;
10132;SDS011;5106;50.926;7.080;2024-02-26T06:13:07;3.00;;;1.20;;
10132;SDS011;5106;50.926;7.080;2024-02-26T06:15:33;1.67;;;1.10;;
10132;SDS011;5106;50.926;7.080;2024-02-26T06:17:58;2.00;;;1.00;;
10132;SDS011;5106;50.926;7.080;2024-02-26T06:20:24;2.63;;;1.37;;
10132;SDS011;5106;50.926;7.080;2024-02-26T06:22:50;1.30;;;1.00;;
10132;SDS011;5106;50.926;7.080;2024-02-26T06:25:16;1.40;;;1.10;;
10132;SDS011;5106;50.926;7.080;2024-02-26T06:27:41;2.10;;;1.20;;
10132;SDS011;5106;50.926;7.080;2024-02-26T06:30:07;1.57;;;1.40;;
10132;SDS011;5106;50.926;7.080;2024-02-26T06:32:36;1.83;;;1.10;;
10132;SDS011;5106;50.926;7.080;2024-02-26T06:35:02;1.57;;;1.03;;
10132;SDS011;5106;50.926;7.080;2024-02-26T06:37:32;1.73;;;1.00;;
10132;SDS011;5106;50.926;7.080;2024-02-26T06:39:58;2.40;;;1.10;;
10132;SDS011;5106;50.926;7.080;2024-02-26T06:42:24;1.20;;;1.07;;
10132;SDS011;5106;50.926;7.080;2024-02-26T06:44:50;3.27;;;1.30;;
10132;SDS011;5106;50.926;7.080;2024-02-26T06:47:16;1.70;;;1.20;;
10132;SDS011;5106;50.926;7.080;2024-02-26T06:49:41;1.53;;;1.10;;
10132;SDS011;5106;50.926;7.080;2024-02-26T06:52:08;1.60;;;1.20;;
10132;SDS011;5106;50.926;7.080;2024-02-26T06:54:34;3.40;;;1.33;;
10132;SDS011;5106;50.926;7.080;2024-02-26T06:56:59;1.93;;;1.20;;
10132;SDS011;5106;50.926;7.080;2024-02-26T06:59:25;1.60;;;1.17;;
10132;SDS011;5106;50.926;7.080;2024-02-26T07:01:50;2.33;;;1.10;;
10132;SDS011;5106;50.926;7.080;2024-02-26T07:04:16;1.67;;;1.50;;
10132;SDS011;5106;50.926;7.080;2024-02-26T07:06:42;2.37;;;1.40;;
10132;SDS011;5106;50.926;7.080;2024-02-26T07:09:08;1.57;;;1.30;;
10132;SDS011;5106;50.926;7.080;2024-02-26T07:11:34;3.10;;;1.70;;
10132;SDS011;5106;50.926;7.080;2024-02-26T07:14:00;3.70;;;1.40;;
10132;SDS011;5106;50.926;7.080;2024-02-26T07:16:26;2.70;;;1.23;;
10132;SDS011;5106;50.926;7.080;2024-02-26T07:18:52;1.53;;;1.30;;
10132;SDS011;5106;50.926;7.080;2024-02-26T07:21:17;1.70;;;1.30;;
10132;SDS011;5106;50.926;7.080;2024-02-26T07:23:43;2.13;;;1.40;;
10132;SDS011;5106;50.926;7.080;2024-02-26T07:26:09;1.47;;;1.20;;
10132;SDS011;5106;50.926;7.080;2024-02-26T07:28:36;4.13;;;1.50;;
10132;SDS011;5106;50.926;7.080;2024-02-26T07:31:02;2.47;;;1.10;;
10132;SDS011;5106;50.926;7.080;2024-02-26T07:33:28;2.50;;;1.40;;
10132;SDS011;5106;50.926;7.080;2024-02-26T07:35:54;1.80;;;1.30;;
10132;SDS011;5106;50.926;7.080;2024-02-26T07:38:19;1.90;;;1.27;;
10132;SDS011;5106;50.926;7.080;2024-02-26T07:40:45;2.43;;;1.53;;
10132;SDS011;5106;50.926;7.080;2024-02-26T07:43:10;2.50;;;1.40;;
10132;SDS011;5106;50.926;7.080;2024-02-26T07:45:36;2.20;;;1.27;;
10132;SDS011;5106;50.926;7.080;2024-02-26T07:48:02;2.33;;;1.33;;
10132;SDS011;5106;50.926;7.080;2024-02-26T07:50:27;1.30;;;1.20;;
10132;SDS011;5106;50.926;7.080;2024-02-26T07:52:53;2.40;;;1.37;;
10132;SDS011;5106;50.926;7.080;2024-02-26T07:55:19;1.73;;;1.20;;
10132;SDS011;5106;50.926;7.080;2024-02-26T07:57:45;1.87;;;1.40;;
10132;SDS011;5106;50.926;7.080;2024-02-26T08:00:10;1.73;;;1.30;;
10132;SDS011;5106;50.926;7.080;2024-02-26T08:02:36;1.67;;;1.33;;
10132;SDS011;5106;50.926;7.080;2024-02-26T08:05:02;1.83;;;1.13;;
10132;SDS011;5106;50.926;7.080;2024-02-26T08:07:28;1.70;;;1.20;;
10132;SDS011;5106;50.926;7.080;2024-02-26T08:09:54;2.63;;;1.43;;
10132;SDS011;5106;50.926;7.080;2024-02-26T08:12:19;1.90;;;1.47;;
10132;SDS011;5106;50.926;7.080;2024-02-26T08:14:45;1.40;;;1.30;;
10132;SDS011;5106;50.926;7.080;2024-02-26T08:17:11;1.70;;;1.17;;
10132;SDS011;5106;50.926;7.080;2024-02-26T08:19:36;2.13;;;1.40;;
10132;SDS011;5106;50.926;7.080;2024-02-26T08:22:02;1.47;;;1.30;;
10132;SDS011;5106;50.926;7.080;2024-02-26T08:24:28;1.53;;;1.30;;
10132;SDS011;5106;50.926;7.080;2024-02-26T08:26:53;3.47;;;1.43;;
10132;SDS011;5106;50.926;7.080;2024-02-26T08:29:19;2.67;;;1.50;;
10132;SDS011;5106;50.926;7.080;2024-02-26T08:31:45;2.43;;;1.47;;
10132;SDS011;5106;50.926;7.080;2024-02-26T08:34:10;1.70;;;1.33;;
10132;SDS011;5106;50.926;7.080;2024-02-26T08:36:36;2.03;;;1.30;;
10132;SDS011;5106;50.926;7.080;2024-02-26T08:39:02;2.27;;;1.40;;
10132;SDS011;5106;50.926;7.080;2024-02-26T08:41:27;1.83;;;1.30;;
10132;SDS011;5106;50.926;7.080;2024-02-26T08:43:53;1.37;;;1.27;;
10132;SDS011;5106;50.926;7.080;2024-02-26T08:46:19;2.30;;;1.47;;
10132;SDS011;5106;50.926;7.080;2024-02-26T08:48:45;1.70;;;1.40;;
10132;SDS011;5106;50.926;7.080;2024-02-26T08:51:11;2.00;;;1.43;;
10132;SDS011;5106;50.926;7.080;2024-02-26T08:53:38;2.07;;;1.40;;
10132;SDS011;5106;50.926;7.080;2024-02-26T08:56:04;2.30;;;1.40;;
10132;SDS011;5106;50.926;7.080;2024-02-26T08:58:30;2.20;;;1.40;;
10132;SDS011;5106;50.926;7.080;2024-02-26T09:00:55;1.80;;;1.20;;
10132;SDS011;5106;50.926;7.080;2024-02-26T09:03:21;2.37;;;1.80;;
10132;SDS011;5106;50.926;7.080;2024-02-26T09:05:47;2.63;;;1.70;;
10132;SDS011;5106;50.926;7.080;2024-02-26T09:08:13;1.90;;;1.53;;
10132;SDS011;5106;50.926;7.080;2024-02-26T09:10:39;3.57;;;1.60;;
10132;SDS011;5106;50.926;7.080;2024-02-26T09:13:05;2.47;;;1.63;;
10132;SDS011;5106;50.926;7.080;2024-02-26T09:15:31;2.23;;;1.80;;
10132;SDS011;5106;50.926;7.080;2024-02-26T09:17:57;1.93;;;1.60;;
10132;SDS011;5106;50.926;7.080;2024-02-26T09:20:23;2.63;;;1.73;;
10132;SDS011;5106;50.926;7.080;2024-02-26T09:22:49;1.90;;;1.40;;
10132;SDS011;5106;50.926;7.080;2024-02-26T09:25:15;2.73;;;1.73;;
10132;SDS011;5106;50.926;7.080;2024-02-26T09:27:42;2.00;;;1.50;;
10132;SDS011;5106;50.926;7.080;2024-02-26T09:30:09;2.60;;;1.70;;
10132;SDS011;5106;50.926;7.080;2024-02-26T09:32:35;2.10;;;1.60;;
10132;SDS011;5106;50.926;7.080;2024-02-26T09:35:01;3.47;;;1.70;;
10132;SDS011;5106;50.926;7.080;2024-02-26T09:37:27;2.50;;;1.40;;
10132;SDS011;5106;50.926;7.080;2024-02-26T09:39:52;2.90;;;1.50;;
10132;SDS011;5106;50.926;7.080;2024-02-26T09:42:18;3.17;;;2.03;;
10132;SDS011;5106;50.926;7.080;2024-02-26T09:44:44;3.73;;;1.80;;
10132;SDS011;5106;50.926;7.080;2024-02-26T09:47:11;2.63;;;1.60;;
10132;SDS011;5106;50.926;7.080;2024-02-26T09:49:40;2.77;;;1.90;;
10132;SDS011;5106;50.926;7.080;2024-02-26T09:52:07;1.63;;;1.50;;
10132;SDS011;5106;50.926;7.080;2024-02-26T09:54:36;2.40;;;1.67;;
10132;SDS011;5106;50.926;7.080;2024-02-26T09:57:03;2.40;;;1.83;;
10132;SDS011;5106;50.926;7.080;2024-02-26T09:59:35;3.17;;;1.30;;
10132;SDS011;5106;50.926;7.080;2024-02-26T10:02:05;2.93;;;1.67;;
10132;SDS011;5106;50.926;7.080;2024-02-26T10:04:34;1.80;;;1.60;;
10132;SDS011;5106;50.926;7.080;2024-02-26T10:07:00;3.63;;;1.73;;
10132;SDS011;5106;50.926;7.080;2024-02-26T10:09:28;1.90;;;1.60;;
10132;SDS011;5106;50.926;7.080;2024-02-26T10:11:54;2.37;;;1.77;;
10132;SDS011;5106;50.926;7.080;2024-02-26T10:14:20;2.53;;;1.67;;
10132;SDS011;5106;50.926;7.080;2024-02-26T10:16:46;1.70;;;1.50;;
10132;SDS011;5106;50.926;7.080;2024-02-26T10:19:24;2.80;;;2.20;;
10132;SDS011;5106;50.926;7.080;2024-02-26T10:21:54;2.67;;;1.77;;
10132;SDS011;5106;50.926;7.080;2024-02-26T10:24:22;2.30;;;1.63;;
10132;SDS011;5106;50.926;7.080;2024-02-26T10:26:48;2.40;;;1.73;;
10132;SDS011;5106;50.926;7.080;2024-02-26T10:29:14;2.00;;;1.63;;
10132;SDS011;5106;50.926;7.080;2024-02-26T10:31:42;2.33;;;1.80;;
10132;SDS011;5106;50.926;7.080;2024-02-26T10:34:08;2.00;;;1.80;;
10132;SDS011;5106;50.926;7.080;2024-02-26T10:36:34;4.30;;;1.80;;
10132;SDS011;5106;50.926;7.080;2024-02-26T10:39:09;2.70;;;1.43;;
10132;SDS011;5106;50.926;7.080;2024-02-26T10:41:43;2.10;;;1.67;;
10132;SDS011;5106;50.926;7.080;2024-02-26T10:44:09;2.60;;;1.70;;
10132;SDS011;5106;50.926;7.080;2024-02-26T10:46:36;3.47;;;1.80;;
10132;SDS011;5106;50.926;7.080;2024-02-26T10:49:02;2.60;;;1.90;;
10132;SDS011;5106;50.926;7.080;2024-02-26T10:51:30;2.33;;;1.80;;
10132;SDS011;5106;50.926;7.080;2024-02-26T10:53:56;2.20;;;1.63;;
10132;SDS011;5106;50.926;7.080;2024-02-26T10:56:30;3.77;;;1.80;;
10132;SDS011;5106;50.926;7.080;2024-02-26T10:58:59;3.27;;;1.87;;
10132;SDS011;5106;50.926;7.080;2024-02-26T11:01:26;2.50;;;1.80;;
10132;SDS011;5106;50.926;7.080;2024-02-26T11:03:56;2.53;;;2.00;;
10132;SDS011;5106;50.926;7.080;2024-02-26T11:06:24;2.13;;;1.60;;
10132;SDS011;5106;50.926;7.080;2024-02-26T11:08:52;2.53;;;1.73;;
10132;SDS011;5106;50.926;7.080;2024-02-26T11:11:18;2.43;;;1.87;;
10132;SDS011;5106;50.926;7.080;2024-02-26T11:13:46;3.33;;;1.50;;
10132;SDS011;5106;50.926;7.080;2024-02-26T11:16:19;3.27;;;1.70;;
10132;SDS011;5106;50.926;7.080;2024-02-26T11:18:47;2.60;;;1.90;;
10132;SDS011;5106;50.926;7.080;2024-02-26T11:21:16;4.00;;;1.77;;
10132;SDS011;5106;50.926;7.080;2024-02-26T11:23:44;2.27;;;1.80;;
10132;SDS011;5106;50.926;7.080;2024-02-26T11:26:11;2.97;;;1.83;;
10132;SDS011;5106;50.926;7.080;2024-02-26T11:28:38;2.73;;;2.03;;
10132;SDS011;5106;50.926;7.080;2024-02-26T11:31:05;2.17;;;1.97;;
10132;SDS011;5106;50.926;7.080;2024-02-26T11:33:32;2.17;;;1.77;;
10132;SDS011;5106;50.926;7.080;2024-02-26T11:36:00;1.97;;;1.50;;
10132;SDS011;5106;50.926;7.080;2024-02-26T11:38:36;3.20;;;1.87;;
10132;SDS011;5106;50.926;7.080;2024-02-26T11:41:03;2.67;;;1.87;;
10132;SDS011;5106;50.926;7.080;2024-02-26T11:46:25;2.57;;;1.90;;
10132;SDS011;5106;50.926;7.080;2024-02-26T11:48:51;2.37;;;1.80;;
10132;SDS011;5106;50.926;7.080;2024-02-26T11:51:18;3.03;;;2.10;;
10132;SDS011;5106;50.926;7.080;2024-02-26T11:53:50;2.20;;;1.80;;
10132;SDS011;5106;50.926;7.080;2024-02-26T11:58:44;2.20;;;1.83;;
10132;SDS011;5106;50.926;7.080;2024-02-26T12:04:13;3.60;;;2.00;;
10132;SDS011;5106;50.926;7.080;2024-02-26T12:06:42;3.07;;;1.73;;
10132;SDS011;5106;50.926;7.080;2024-02-26T12:09:10;4.10;;;2.17;;
10132;SDS011;5106;50.926;7.080;2024-02-26T12:11:39;2.10;;;1.90;;
10132;SDS011;5106;50.926;7.080;2024-02-26T12:14:07;2.60;;;2.10;;
10132;SDS011;5106;50.926;7.080;2024-02-26T12:16:39;3.00;;;1.80;;
10132;SDS011;5106;50.926;7.080;2024-02-26T12:19:08;2.83;;;2.07;;
10132;SDS011;5106;50.926;7.080;2024-02-26T12:21:34;1.97;;;1.73;;
10132;SDS011;5106;50.926;7.080;2024-02-26T12:24:10;2.77;;;2.30;;
10132;SDS011;5106;50.926;7.080;2024-02-26T12:26:38;3.07;;;2.03;;
10132;SDS011;5106;50.926;7.080;2024-02-26T12:29:04;3.07;;;2.20;;
10132;SDS011;5106;50.926;7.080;2024-02-26T12:31:30;2.70;;;2.10;;
10132;SDS011;5106;50.926;7.080;2024-02-26T12:33:56;2.60;;;1.97;;
10132;SDS011;5106;50.926;7.080;2024-02-26T12:36:22;2.90;;;2.03;;
10132;SDS011;5106;50.926;7.080;2024-02-26T12:38:48;2.80;;;1.90;;
10132;SDS011;5106;50.926;7.080;2024-02-26T12:41:16;4.67;;;2.00;;
10132;SDS011;5106;50.926;7.080;2024-02-26T12:43:42;2.93;;;2.00;;
10132;SDS011;5106;50.926;7.080;2024-02-26T12:46:07;3.10;;;2.30;;
10132;SDS011;5106;50.926;7.080;2024-02-26T12:48:33;2.50;;;2.10;;
10132;SDS011;5106;50.926;7.080;2024-02-26T12:50:59;2.43;;;2.07;;
10132;SDS011;5106;50.926;7.080;2024-02-26T12:53:25;2.63;;;2.30;;
10132;SDS011;5106;50.926;7.080;2024-02-26T12:55:52;3.03;;;2.10;;
10132;SDS011;5106;50.926;7.080;2024-02-26T12:58:19;2.80;;;2.00;;
10132;SDS011;5106;50.926;7.080;2024-02-26T13:00:49;2.70;;;2.13;;
10132;SDS011;5106;50.926;7.080;2024-02-26T13:03:16;3.60;;;2.20;;
10132;SDS011;5106;50.926;7.080;2024-02-26T13:05:42;3.47;;;2.30;;
10132;SDS011;5106;50.926;7.080;2024-02-26T13:08:08;3.27;;;1.90;;
10132;SDS011;5106;50.926;7.080;2024-02-26T13:10:33;3.27;;;2.23;;
10132;SDS011;5106;50.926;7.080;2024-02-26T13:13:01;2.87;;;1.80;;
10132;SDS011;5106;50.926;7.080;2024-02-26T13:15:27;3.10;;;2.10;;
10132;SDS011;5106;50.926;7.080;2024-02-26T13:17:53;3.67;;;2.30;;
10132;SDS011;5106;50.926;7.080;2024-02-26T13:20:28;3.67;;;2.30;;
10132;SDS011;5106;50.926;7.080;2024-02-26T13:23:03;4.97;;;2.43;;
10132;SDS011;5106;50.926;7.080;2024-02-26T13:25:30;3.87;;;2.43;;
10132;SDS011;5106;50.926;7.080;2024-02-26T13:28:08;3.07;;;2.23;;
10132;SDS011;5106;50.926;7.080;2024-02-26T13:30:38;3.00;;;2.30;;
10132;SDS011;5106;50.926;7.080;2024-02-26T13:33:08;2.70;;;2.17;;
10132;SDS011;5106;50.926;7.080;2024-02-26T13:35:38;2.83;;;2.30;;
10132;SDS011;5106;50.926;7.080;2024-02-26T13:38:05;4.17;;;2.70;;
10132;SDS011;5106;50.926;7.080;2024-02-26T13:40:34;3.60;;;2.47;;
10132;SDS011;5106;50.926;7.080;2024-02-26T13:43:00;3.13;;;2.50;;
10132;SDS011;5106;50.926;7.080;2024-02-26T13:45:26;3.07;;;2.60;;
10132;SDS011;5106;50.926;7.080;2024-02-26T13:47:52;3.43;;;2.63;;
10132;SDS011;5106;50.926;7.080;2024-02-26T13:50:18;4.53;;;2.53;;
10132;SDS011;5106;50.926;7.080;2024-02-26T13:52:46;3.33;;;2.67;;
10132;SDS011;5106;50.926;7.080;2024-02-26T13:55:12;5.68;;;2.50;;
10132;SDS011;5106;50.926;7.080;2024-02-26T13:57:39;2.77;;;2.40;;
10132;SDS011;5106;50.926;7.080;2024-02-26T14:00:05;3.63;;;2.63;;
10132;SDS011;5106;50.926;7.080;2024-02-26T14:02:32;3.00;;;2.60;;
10132;SDS011;5106;50.926;7.080;2024-02-26T14:05:01;3.97;;;2.83;;
10132;SDS011;5106;50.926;7.080;2024-02-26T14:07:28;3.00;;;2.20;;
10132;SDS011;5106;50.926;7.080;2024-02-26T14:09:55;6.73;;;2.67;;
10132;SDS011;5106;50.926;7.080;2024-02-26T14:12:20;3.63;;;2.80;;
10132;SDS011;5106;50.926;7.080;2024-02-26T14:14:46;4.47;;;2.80;;
10132;SDS011;5106;50.926;7.080;2024-02-26T14:17:13;6.57;;;3.10;;
10132;SDS011;5106;50.926;7.080;2024-02-26T14:19:40;4.23;;;3.00;;
10132;SDS011;5106;50.926;7.080;2024-02-26T14:22:11;4.73;;;3.00;;
10132;SDS011;5106;50.926;7.080;2024-02-26T14:24:37;4.57;;;2.93;;
10132;SDS011;5106;50.926;7.080;2024-02-26T14:27:03;4.00;;;3.03;;
10132;SDS011;5106;50.926;7.080;2024-02-26T14:29:29;3.90;;;3.13;;
10132;SDS011;5106;50.926;7.080;2024-02-26T14:31:54;3.73;;;3.20;;
10132;SDS011;5106;50.926;7.080;2024-02-26T14:34:21;4.50;;;3.33;;
10132;SDS011;5106;50.926;7.080;2024-02-26T14:36:47;4.87;;;3.60;;
10132;SDS011;5106;50.926;7.080;2024-02-26T14:39:12;5.97;;;3.73;;
10132;SDS011;5106;50.926;7.080;2024-02-26T14:41:39;4.33;;;3.50;;
10132;SDS011;5106;50.926;7.080;2024-02-26T14:44:04;4.93;;;3.67;;
10132;SDS011;5106;50.926;7.080;2024-02-26T14:46:32;4.30;;;3.53;;
10132;SDS011;5106;50.926;7.080;2024-02-26T14:48:58;5.65;;;3.42;;
10132;SDS011;5106;50.926;7.080;2024-02-26T14:51:24;5.03;;;4.00;;
10132;SDS011;5106;50.926;7.080;2024-02-26T14:53:50;4.67;;;3.60;;
10132;SDS011;5106;50.926;7.080;2024-02-26T14:56:15;5.07;;;3.63;;
10132;SDS011;5106;50.926;7.080;2024-02-26T14:58:41;5.43;;;3.67;;
10132;SDS011;5106;50.926;7.080;2024-02-26T15:01:07;6.00;;;3.95;;
10132;SDS011;5106;50.926;7.080;2024-02-26T15:03:32;5.30;;;3.60;;